sensor_id;sensor_type;location;lat;lon;timestamp;temperature;humidity
12817;DHT22;6473;51.552;6.716;2024-02-21T00:01:36;8.70;99.90
12817;DHT22;6473;51.552;6.716;2024-02-21T00:04:03;8.70;99.90
12817;DHT22;6473;51.552;6.716;2024-02-21T00:06:31;8.70;99.90
12817;DHT22;6473;51.552;6.716;2024-02-21T00:08:58;8.70;99.90
12817;DHT22;6473;51.552;6.716;2024-02-21T00:11:25;10.00;99.90
12817;DHT22;6473;51.552;6.716;2024-02-21T00:13:51;8.70;99.90
12817;DHT22;6473;51.552;6.716;2024-02-21T00:16:20;9.70;99.90
12817;DHT22;6473;51.552;6.716;2024-02-21T00:18:47;8.70;99.90
12817;DHT22;6473;51.552;6.716;2024-02-21T00:21:14;8.70;99.90
12817;DHT22;6473;51.552;6.716;2024-02-21T00:23:43;8.70;99.90
12817;DHT22;6473;51.552;6.716;2024-02-21T00:26:11;10.60;99.90
12817;DHT22;6473;51.552;6.716;2024-02-21T00:28:38;8.70;99.90
12817;DHT22;6473;51.552;6.716;2024-02-21T00:31:05;11.90;99.90
12817;DHT22;6473;51.552;6.716;2024-02-21T00:33:33;8.70;99.90
12817;DHT22;6473;51.552;6.716;2024-02-21T00:36:00;8.70;99.90
12817;DHT22;6473;51.552;6.716;2024-02-21T00:38:27;8.70;99.90
12817;DHT22;6473;51.552;6.716;2024-02-21T00:40:54;8.70;99.90
12817;DHT22;6473;51.552;6.716;2024-02-21T00:43:21;8.60;99.90
12817;DHT22;6473;51.552;6.716;2024-02-21T00:45:49;9.70;99.90
12817;DHT22;6473;51.552;6.716;2024-02-21T00:48:16;8.70;99.90
12817;DHT22;6473;51.552;6.716;2024-02-21T00:50:44;8.70;99.90
12817;DHT22;6473;51.552;6.716;2024-02-21T00:53:11;8.40;99.90
12817;DHT22;6473;51.552;6.716;2024-02-21T00:55:38;8.70;99.90
12817;DHT22;6473;51.552;6.716;2024-02-21T00:58:05;8.70;99.90
12817;DHT22;6473;51.552;6.716;2024-02-21T01:00:32;8.70;99.90
12817;DHT22;6473;51.552;6.716;2024-02-21T01:02:59;8.70;99.90
12817;DHT22;6473;51.552;6.716;2024-02-21T01:05:26;11.30;99.90
12817;DHT22;6473;51.552;6.716;2024-02-21T01:07:56;8.90;99.90
12817;DHT22;6473;51.552;6.716;2024-02-21T01:10:23;8.60;99.90
12817;DHT22;6473;51.552;6.716;2024-02-21T01:12:50;8.60;99.90
12817;DHT22;6473;51.552;6.716;2024-02-21T01:15:17;8.70;99.90
12817;DHT22;6473;51.552;6.716;2024-02-21T01:17:44;8.60;99.90
12817;DHT22;6473;51.552;6.716;2024-02-21T01:20:11;8.70;99.90
12817;DHT22;6473;51.552;6.716;2024-02-21T01:22:38;8.60;99.90
12817;DHT22;6473;51.552;6.716;2024-02-21T01:25:07;11.30;99.90
12817;DHT22;6473;51.552;6.716;2024-02-21T01:27:34;8.70;99.90
12817;DHT22;6473;51.552;6.716;2024-02-21T01:30:01;8.60;99.90
12817;DHT22;6473;51.552;6.716;2024-02-21T01:32:28;8.60;99.90
12817;DHT22;6473;51.552;6.716;2024-02-21T01:34:55;11.40;99.90
12817;DHT22;6473;51.552;6.716;2024-02-21T01:37:22;8.70;99.90
12817;DHT22;6473;51.552;6.716;2024-02-21T01:39:49;8.10;99.90
12817;DHT22;6473;51.552;6.716;2024-02-21T01:42:17;8.60;99.90
12817;DHT22;6473;51.552;6.716;2024-02-21T01:44:45;8.60;99.90
12817;DHT22;6473;51.552;6.716;2024-02-21T01:47:13;8.60;99.90
12817;DHT22;6473;51.552;6.716;2024-02-21T01:49:41;11.00;99.90
12817;DHT22;6473;51.552;6.716;2024-02-21T01:52:08;11.70;99.90
12817;DHT22;6473;51.552;6.716;2024-02-21T01:54:35;8.50;99.90
12817;DHT22;6473;51.552;6.716;2024-02-21T01:57:02;8.40;99.90
12817;DHT22;6473;51.552;6.716;2024-02-21T01:59:31;8.40;99.90
12817;DHT22;6473;51.552;6.716;2024-02-21T02:01:58;8.40;99.90
12817;DHT22;6473;51.552;6.716;2024-02-21T02:04:26;8.40;99.90
12817;DHT22;6473;51.552;6.716;2024-02-21T02:06:54;9.80;99.90
12817;DHT22;6473;51.552;6.716;2024-02-21T02:09:21;8.40;99.90
12817;DHT22;6473;51.552;6.716;2024-02-21T02:11:48;10.90;99.90
12817;DHT22;6473;51.552;6.716;2024-02-21T02:14:15;9.80;99.90
12817;DHT22;6473;51.552;6.716;2024-02-21T02:16:46;8.40;99.90
12817;DHT22;6473;51.552;6.716;2024-02-21T02:19:13;8.40;99.90
12817;DHT22;6473;51.552;6.716;2024-02-21T02:21:46;10.40;99.90
12817;DHT22;6473;51.552;6.716;2024-02-21T02:24:14;8.40;99.90
12817;DHT22;6473;51.552;6.716;2024-02-21T02:26:42;11.00;99.90
12817;DHT22;6473;51.552;6.716;2024-02-21T02:29:09;8.40;99.90
12817;DHT22;6473;51.552;6.716;2024-02-21T02:31:36;8.30;99.90
12817;DHT22;6473;51.552;6.716;2024-02-21T02:34:03;8.30;99.90
12817;DHT22;6473;51.552;6.716;2024-02-21T02:36:32;8.30;99.90
12817;DHT22;6473;51.552;6.716;2024-02-21T02:38:59;8.20;99.90
12817;DHT22;6473;51.552;6.716;2024-02-21T02:41:27;8.20;99.90
12817;DHT22;6473;51.552;6.716;2024-02-21T02:43:54;8.20;99.90
12817;DHT22;6473;51.552;6.716;2024-02-21T02:46:21;8.20;99.90
12817;DHT22;6473;51.552;6.716;2024-02-21T02:48:48;9.50;99.90
12817;DHT22;6473;51.552;6.716;2024-02-21T02:51:15;8.20;99.90
12817;DHT22;6473;51.552;6.716;2024-02-21T02:53:42;8.30;99.90
12817;DHT22;6473;51.552;6.716;2024-02-21T02:56:14;8.30;99.90
12817;DHT22;6473;51.552;6.716;2024-02-21T02:58:43;8.30;99.90
12817;DHT22;6473;51.552;6.716;2024-02-21T03:01:10;8.30;99.90
12817;DHT22;6473;51.552;6.716;2024-02-21T03:03:37;10.20;99.90
12817;DHT22;6473;51.552;6.716;2024-02-21T03:06:04;8.40;99.90
12817;DHT22;6473;51.552;6.716;2024-02-21T03:08:31;8.60;99.90
12817;DHT22;6473;51.552;6.716;2024-02-21T03:11:00;8.40;99.90
12817;DHT22;6473;51.552;6.716;2024-02-21T03:13:27;10.20;99.90
12817;DHT22;6473;51.552;6.716;2024-02-21T03:15:55;8.50;99.90
12817;DHT22;6473;51.552;6.716;2024-02-21T03:18:22;8.40;99.90
12817;DHT22;6473;51.552;6.716;2024-02-21T03:20:49;9.10;99.90
12817;DHT22;6473;51.552;6.716;2024-02-21T03:23:16;8.50;99.90
12817;DHT22;6473;51.552;6.716;2024-02-21T03:25:43;8.50;99.90
12817;DHT22;6473;51.552;6.716;2024-02-21T03:28:10;8.50;99.90
12817;DHT22;6473;51.552;6.716;2024-02-21T03:30:36;8.50;99.90
12817;DHT22;6473;51.552;6.716;2024-02-21T03:33:05;9.60;99.90
12817;DHT22;6473;51.552;6.716;2024-02-21T03:35:32;8.50;99.90
12817;DHT22;6473;51.552;6.716;2024-02-21T03:37:59;8.50;99.90
12817;DHT22;6473;51.552;6.716;2024-02-21T03:40:26;8.50;99.90
12817;DHT22;6473;51.552;6.716;2024-02-21T03:42:52;8.50;99.90
12817;DHT22;6473;51.552;6.716;2024-02-21T03:45:19;8.50;99.90
12817;DHT22;6473;51.552;6.716;2024-02-21T03:47:46;8.50;99.90
12817;DHT22;6473;51.552;6.716;2024-02-21T03:50:14;9.40;99.90
12817;DHT22;6473;51.552;6.716;2024-02-21T03:52:41;8.50;99.90
12817;DHT22;6473;51.552;6.716;2024-02-21T03:55:08;10.30;99.90
12817;DHT22;6473;51.552;6.716;2024-02-21T03:57:36;8.60;99.90
12817;DHT22;6473;51.552;6.716;2024-02-21T04:00:05;8.60;99.90
12817;DHT22;6473;51.552;6.716;2024-02-21T04:02:36;8.60;99.90
12817;DHT22;6473;51.552;6.716;2024-02-21T04:05:03;10.30;99.90
12817;DHT22;6473;51.552;6.716;2024-02-21T04:07:32;8.60;99.90
12817;DHT22;6473;51.552;6.716;2024-02-21T04:09:59;8.50;99.90
12817;DHT22;6473;51.552;6.716;2024-02-21T04:12:27;8.60;99.90
12817;DHT22;6473;51.552;6.716;2024-02-21T04:14:54;8.60;99.90
12817;DHT22;6473;51.552;6.716;2024-02-21T04:17:21;8.60;99.90
12817;DHT22;6473;51.552;6.716;2024-02-21T04:19:48;8.60;99.90
12817;DHT22;6473;51.552;6.716;2024-02-21T04:22:16;8.50;99.90
12817;DHT22;6473;51.552;6.716;2024-02-21T04:24:44;8.60;99.90
12817;DHT22;6473;51.552;6.716;2024-02-21T04:27:11;10.70;99.90
12817;DHT22;6473;51.552;6.716;2024-02-21T04:29:38;8.50;99.90
12817;DHT22;6473;51.552;6.716;2024-02-21T04:32:06;8.50;99.90
12817;DHT22;6473;51.552;6.716;2024-02-21T04:34:33;8.60;99.90
12817;DHT22;6473;51.552;6.716;2024-02-21T04:37:00;8.60;99.90
12817;DHT22;6473;51.552;6.716;2024-02-21T04:39:27;10.50;99.90
12817;DHT22;6473;51.552;6.716;2024-02-21T04:41:55;11.30;99.90
12817;DHT22;6473;51.552;6.716;2024-02-21T04:44:22;8.50;99.90
12817;DHT22;6473;51.552;6.716;2024-02-21T04:46:49;8.70;99.90
12817;DHT22;6473;51.552;6.716;2024-02-21T04:49:15;9.70;99.90
12817;DHT22;6473;51.552;6.716;2024-02-21T04:51:42;8.50;99.90
12817;DHT22;6473;51.552;6.716;2024-02-21T04:54:09;8.60;99.90
12817;DHT22;6473;51.552;6.716;2024-02-21T04:56:37;8.60;99.90
12817;DHT22;6473;51.552;6.716;2024-02-21T04:59:05;8.50;99.90
12817;DHT22;6473;51.552;6.716;2024-02-21T05:01:32;8.60;99.90
12817;DHT22;6473;51.552;6.716;2024-02-21T05:03:58;9.20;99.90
12817;DHT22;6473;51.552;6.716;2024-02-21T05:06:25;8.60;99.90
12817;DHT22;6473;51.552;6.716;2024-02-21T05:08:52;9.90;99.90
12817;DHT22;6473;51.552;6.716;2024-02-21T05:11:20;8.60;99.90
12817;DHT22;6473;51.552;6.716;2024-02-21T05:13:47;10.70;99.90
12817;DHT22;6473;51.552;6.716;2024-02-21T05:16:15;10.30;99.90
12817;DHT22;6473;51.552;6.716;2024-02-21T05:18:42;8.60;99.90
12817;DHT22;6473;51.552;6.716;2024-02-21T05:21:09;8.60;99.90
12817;DHT22;6473;51.552;6.716;2024-02-21T05:23:36;8.60;99.90
12817;DHT22;6473;51.552;6.716;2024-02-21T05:26:05;9.40;99.90
12817;DHT22;6473;51.552;6.716;2024-02-21T05:28:32;8.60;99.90
12817;DHT22;6473;51.552;6.716;2024-02-21T05:30:59;8.60;99.90
12817;DHT22;6473;51.552;6.716;2024-02-21T05:33:27;8.60;99.90
12817;DHT22;6473;51.552;6.716;2024-02-21T05:35:54;10.40;99.90
12817;DHT22;6473;51.552;6.716;2024-02-21T05:38:21;11.30;99.90
12817;DHT22;6473;51.552;6.716;2024-02-21T05:40:48;8.60;99.90
12817;DHT22;6473;51.552;6.716;2024-02-21T05:43:15;9.60;99.90
12817;DHT22;6473;51.552;6.716;2024-02-21T05:45:42;11.40;99.90
12817;DHT22;6473;51.552;6.716;2024-02-21T05:48:09;8.60;99.90
12817;DHT22;6473;51.552;6.716;2024-02-21T05:50:37;8.60;99.90
12817;DHT22;6473;51.552;6.716;2024-02-21T05:53:04;8.60;99.90
12817;DHT22;6473;51.552;6.716;2024-02-21T05:55:31;9.30;99.90
12817;DHT22;6473;51.552;6.716;2024-02-21T05:57:57;8.60;99.90
12817;DHT22;6473;51.552;6.716;2024-02-21T06:00:24;8.80;99.90
12817;DHT22;6473;51.552;6.716;2024-02-21T06:02:51;8.60;99.90
12817;DHT22;6473;51.552;6.716;2024-02-21T06:05:17;8.60;99.90
12817;DHT22;6473;51.552;6.716;2024-02-21T06:07:46;8.60;99.90
12817;DHT22;6473;51.552;6.716;2024-02-21T06:10:12;8.60;99.90
12817;DHT22;6473;51.552;6.716;2024-02-21T06:12:39;8.50;99.90
12817;DHT22;6473;51.552;6.716;2024-02-21T06:15:07;8.60;99.90
12817;DHT22;6473;51.552;6.716;2024-02-21T06:17:34;8.50;99.90
12817;DHT22;6473;51.552;6.716;2024-02-21T06:20:01;9.40;99.90
12817;DHT22;6473;51.552;6.716;2024-02-21T06:24:56;8.50;99.90
12817;DHT22;6473;51.552;6.716;2024-02-21T06:27:23;8.40;99.90
12817;DHT22;6473;51.552;6.716;2024-02-21T06:29:50;8.40;99.90
12817;DHT22;6473;51.552;6.716;2024-02-21T06:32:17;8.40;99.90
12817;DHT22;6473;51.552;6.716;2024-02-21T06:34:44;8.40;99.90
12817;DHT22;6473;51.552;6.716;2024-02-21T06:37:11;8.40;99.90
12817;DHT22;6473;51.552;6.716;2024-02-21T06:39:38;8.40;99.90
12817;DHT22;6473;51.552;6.716;2024-02-21T06:42:07;8.30;99.90
12817;DHT22;6473;51.552;6.716;2024-02-21T06:44:34;8.30;99.90
12817;DHT22;6473;51.552;6.716;2024-02-21T06:47:06;8.40;99.90
12817;DHT22;6473;51.552;6.716;2024-02-21T06:52:00;8.40;99.90
12817;DHT22;6473;51.552;6.716;2024-02-21T06:54:27;8.40;99.90
12817;DHT22;6473;51.552;6.716;2024-02-21T06:56:54;8.40;99.90
12817;DHT22;6473;51.552;6.716;2024-02-21T06:59:22;8.40;99.90
12817;DHT22;6473;51.552;6.716;2024-02-21T07:01:53;11.00;99.90
12817;DHT22;6473;51.552;6.716;2024-02-21T07:06:47;8.40;99.90
12817;DHT22;6473;51.552;6.716;2024-02-21T07:09:14;8.80;99.90
12817;DHT22;6473;51.552;6.716;2024-02-21T07:11:41;8.50;99.90
12817;DHT22;6473;51.552;6.716;2024-02-21T07:14:08;8.50;99.90
12817;DHT22;6473;51.552;6.716;2024-02-21T07:16:36;10.60;99.90
12817;DHT22;6473;51.552;6.716;2024-02-21T07:19:03;8.50;99.90
12817;DHT22;6473;51.552;6.716;2024-02-21T07:21:30;8.50;99.90
12817;DHT22;6473;51.552;6.716;2024-02-21T07:23:56;8.50;99.90
12817;DHT22;6473;51.552;6.716;2024-02-21T07:26:23;8.60;99.90
12817;DHT22;6473;51.552;6.716;2024-02-21T07:28:50;8.60;99.90
12817;DHT22;6473;51.552;6.716;2024-02-21T07:31:17;10.60;99.90
12817;DHT22;6473;51.552;6.716;2024-02-21T07:33:45;8.60;99.90
12817;DHT22;6473;51.552;6.716;2024-02-21T07:36:15;8.60;99.90
12817;DHT22;6473;51.552;6.716;2024-02-21T07:38:42;8.70;99.90
12817;DHT22;6473;51.552;6.716;2024-02-21T07:41:09;8.70;99.90
12817;DHT22;6473;51.552;6.716;2024-02-21T07:43:36;10.60;99.90
12817;DHT22;6473;51.552;6.716;2024-02-21T07:46:03;8.70;99.90
12817;DHT22;6473;51.552;6.716;2024-02-21T07:48:30;8.60;99.90
12817;DHT22;6473;51.552;6.716;2024-02-21T07:50:58;8.70;99.90
12817;DHT22;6473;51.552;6.716;2024-02-21T07:53:25;10.60;99.90
12817;DHT22;6473;51.552;6.716;2024-02-21T07:55:52;8.70;99.90
12817;DHT22;6473;51.552;6.716;2024-02-21T07:58:19;9.60;99.90
12817;DHT22;6473;51.552;6.716;2024-02-21T08:00:46;8.70;99.90
12817;DHT22;6473;51.552;6.716;2024-02-21T08:03:13;11.00;99.90
12817;DHT22;6473;51.552;6.716;2024-02-21T08:05:41;11.40;99.90
12817;DHT22;6473;51.552;6.716;2024-02-21T08:08:09;8.70;99.90
12817;DHT22;6473;51.552;6.716;2024-02-21T08:10:39;8.70;99.90
12817;DHT22;6473;51.552;6.716;2024-02-21T08:13:06;8.70;99.90
12817;DHT22;6473;51.552;6.716;2024-02-21T08:15:33;8.70;99.90
12817;DHT22;6473;51.552;6.716;2024-02-21T08:18:00;8.80;99.90
12817;DHT22;6473;51.552;6.716;2024-02-21T08:20:29;8.80;99.90
12817;DHT22;6473;51.552;6.716;2024-02-21T08:22:56;11.60;99.90
12817;DHT22;6473;51.552;6.716;2024-02-21T08:25:24;11.60;99.90
12817;DHT22;6473;51.552;6.716;2024-02-21T08:27:51;8.80;99.90
12817;DHT22;6473;51.552;6.716;2024-02-21T08:30:18;8.90;99.90
12817;DHT22;6473;51.552;6.716;2024-02-21T08:32:48;9.00;99.90
12817;DHT22;6473;51.552;6.716;2024-02-21T08:35:15;9.00;99.90
12817;DHT22;6473;51.552;6.716;2024-02-21T08:37:44;9.00;99.90
12817;DHT22;6473;51.552;6.716;2024-02-21T08:40:13;9.00;99.90
12817;DHT22;6473;51.552;6.716;2024-02-21T08:42:44;9.00;99.90
12817;DHT22;6473;51.552;6.716;2024-02-21T08:45:11;8.90;99.90
12817;DHT22;6473;51.552;6.716;2024-02-21T08:47:39;8.90;99.90
12817;DHT22;6473;51.552;6.716;2024-02-21T08:50:07;9.00;99.90
12817;DHT22;6473;51.552;6.716;2024-02-21T08:52:35;9.00;99.90
12817;DHT22;6473;51.552;6.716;2024-02-21T08:55:02;9.00;99.90
12817;DHT22;6473;51.552;6.716;2024-02-21T08:57:29;9.00;99.90
12817;DHT22;6473;51.552;6.716;2024-02-21T09:00:04;9.00;99.90
12817;DHT22;6473;51.552;6.716;2024-02-21T09:02:35;9.00;99.90
12817;DHT22;6473;51.552;6.716;2024-02-21T09:05:04;12.40;99.90
12817;DHT22;6473;51.552;6.716;2024-02-21T09:07:31;9.00;99.90
12817;DHT22;6473;51.552;6.716;2024-02-21T09:09:58;9.00;99.90
12817;DHT22;6473;51.552;6.716;2024-02-21T09:12:25;8.90;99.90
12817;DHT22;6473;51.552;6.716;2024-02-21T09:14:52;10.50;99.90
12817;DHT22;6473;51.552;6.716;2024-02-21T09:19:48;8.90;99.90
12817;DHT22;6473;51.552;6.716;2024-02-21T09:22:15;11.40;99.90
12817;DHT22;6473;51.552;6.716;2024-02-21T09:24:42;8.80;99.90
12817;DHT22;6473;51.552;6.716;2024-02-21T09:27:08;9.90;99.90
12817;DHT22;6473;51.552;6.716;2024-02-21T09:29:35;10.90;99.90
12817;DHT22;6473;51.552;6.716;2024-02-21T09:32:03;9.90;99.90
12817;DHT22;6473;51.552;6.716;2024-02-21T09:34:31;8.80;99.90
12817;DHT22;6473;51.552;6.716;2024-02-21T09:36:58;11.30;99.90
12817;DHT22;6473;51.552;6.716;2024-02-21T09:39:25;8.90;99.90
12817;DHT22;6473;51.552;6.716;2024-02-21T09:41:57;11.00;99.90
12817;DHT22;6473;51.552;6.716;2024-02-21T09:44:30;9.00;99.90
12817;DHT22;6473;51.552;6.716;2024-02-21T09:47:02;9.00;99.90
12817;DHT22;6473;51.552;6.716;2024-02-21T09:49:32;9.00;99.90
12817;DHT22;6473;51.552;6.716;2024-02-21T09:52:01;9.70;99.90
12817;DHT22;6473;51.552;6.716;2024-02-21T09:54:29;8.90;99.90
12817;DHT22;6473;51.552;6.716;2024-02-21T09:56:56;9.00;99.90
12817;DHT22;6473;51.552;6.716;2024-02-21T09:59:24;8.80;99.90
12817;DHT22;6473;51.552;6.716;2024-02-21T10:01:51;8.80;99.90
12817;DHT22;6473;51.552;6.716;2024-02-21T10:04:20;8.90;99.90
12817;DHT22;6473;51.552;6.716;2024-02-21T10:06:48;11.70;99.90
12817;DHT22;6473;51.552;6.716;2024-02-21T10:09:22;8.90;99.90
12817;DHT22;6473;51.552;6.716;2024-02-21T10:11:49;8.90;99.90
12817;DHT22;6473;51.552;6.716;2024-02-21T10:14:17;8.90;99.90
12817;DHT22;6473;51.552;6.716;2024-02-21T10:16:44;9.00;99.90
12817;DHT22;6473;51.552;6.716;2024-02-21T10:19:18;9.00;99.90
12817;DHT22;6473;51.552;6.716;2024-02-21T10:22:02;10.80;99.90
12817;DHT22;6473;51.552;6.716;2024-02-21T10:24:30;9.00;99.90
12817;DHT22;6473;51.552;6.716;2024-02-21T10:27:07;9.10;99.90
12817;DHT22;6473;51.552;6.716;2024-02-21T10:29:36;9.00;99.90
12817;DHT22;6473;51.552;6.716;2024-02-21T10:32:08;9.00;99.90
12817;DHT22;6473;51.552;6.716;2024-02-21T10:34:35;10.70;99.90
12817;DHT22;6473;51.552;6.716;2024-02-21T10:37:04;9.00;99.90
12817;DHT22;6473;51.552;6.716;2024-02-21T10:39:32;10.10;99.90
12817;DHT22;6473;51.552;6.716;2024-02-21T10:42:00;9.00;99.90
12817;DHT22;6473;51.552;6.716;2024-02-21T10:44:30;9.00;99.90
12817;DHT22;6473;51.552;6.716;2024-02-21T10:46:58;9.10;99.90
12817;DHT22;6473;51.552;6.716;2024-02-21T10:49:26;9.20;99.90
12817;DHT22;6473;51.552;6.716;2024-02-21T10:51:55;9.20;99.90
12817;DHT22;6473;51.552;6.716;2024-02-21T10:54:39;9.20;99.90
12817;DHT22;6473;51.552;6.716;2024-02-21T10:57:07;9.80;99.90
12817;DHT22;6473;51.552;6.716;2024-02-21T10:59:37;10.40;99.90
12817;DHT22;6473;51.552;6.716;2024-02-21T11:02:04;9.30;99.90
12817;DHT22;6473;51.552;6.716;2024-02-21T11:04:32;9.30;99.90
12817;DHT22;6473;51.552;6.716;2024-02-21T11:07:02;9.40;99.90
12817;DHT22;6473;51.552;6.716;2024-02-21T11:09:32;9.40;99.90
12817;DHT22;6473;51.552;6.716;2024-02-21T11:12:01;9.50;99.90
12817;DHT22;6473;51.552;6.716;2024-02-21T11:14:29;12.50;99.90
12817;DHT22;6473;51.552;6.716;2024-02-21T11:16:59;11.80;99.90
12817;DHT22;6473;51.552;6.716;2024-02-21T11:19:26;8.10;99.90
12817;DHT22;6473;51.552;6.716;2024-02-21T11:21:54;9.60;99.90
12817;DHT22;6473;51.552;6.716;2024-02-21T11:24:26;12.60;99.90
12817;DHT22;6473;51.552;6.716;2024-02-21T11:26:56;9.70;99.90
12817;DHT22;6473;51.552;6.716;2024-02-21T11:29:23;9.70;99.90
12817;DHT22;6473;51.552;6.716;2024-02-21T11:31:51;10.00;99.90
12817;DHT22;6473;51.552;6.716;2024-02-21T11:34:19;9.70;99.90
12817;DHT22;6473;51.552;6.716;2024-02-21T11:36:49;9.80;99.90
12817;DHT22;6473;51.552;6.716;2024-02-21T11:39:21;9.90;99.90
12817;DHT22;6473;51.552;6.716;2024-02-21T11:42:04;9.90;99.90
12817;DHT22;6473;51.552;6.716;2024-02-21T11:44:31;9.90;99.90
12817;DHT22;6473;51.552;6.716;2024-02-21T11:46:58;12.60;99.90
12817;DHT22;6473;51.552;6.716;2024-02-21T11:49:25;10.00;99.90
12817;DHT22;6473;51.552;6.716;2024-02-21T11:51:58;10.00;99.90
12817;DHT22;6473;51.552;6.716;2024-02-21T11:54:26;10.00;99.90
12817;DHT22;6473;51.552;6.716;2024-02-21T11:56:53;11.40;99.90
12817;DHT22;6473;51.552;6.716;2024-02-21T11:59:21;10.00;99.90
12817;DHT22;6473;51.552;6.716;2024-02-21T12:04:18;10.00;99.90
12817;DHT22;6473;51.552;6.716;2024-02-21T12:06:45;13.20;99.90
12817;DHT22;6473;51.552;6.716;2024-02-21T12:09:14;10.10;99.90
12817;DHT22;6473;51.552;6.716;2024-02-21T12:11:41;10.20;99.90
12817;DHT22;6473;51.552;6.716;2024-02-21T12:14:09;10.20;99.90
12817;DHT22;6473;51.552;6.716;2024-02-21T12:16:37;12.10;99.90
12817;DHT22;6473;51.552;6.716;2024-02-21T12:19:05;10.20;99.90
12817;DHT22;6473;51.552;6.716;2024-02-21T12:21:33;10.30;99.90
12817;DHT22;6473;51.552;6.716;2024-02-21T12:24:12;10.30;99.90
12817;DHT22;6473;51.552;6.716;2024-02-21T12:26:39;10.30;99.90
12817;DHT22;6473;51.552;6.716;2024-02-21T12:29:06;12.50;99.90
12817;DHT22;6473;51.552;6.716;2024-02-21T12:31:36;10.40;99.90
12817;DHT22;6473;51.552;6.716;2024-02-21T12:34:03;10.50;99.90
12817;DHT22;6473;51.552;6.716;2024-02-21T12:36:30;10.40;99.90
12817;DHT22;6473;51.552;6.716;2024-02-21T12:38:57;10.40;99.90
12817;DHT22;6473;51.552;6.716;2024-02-21T12:41:24;10.90;99.90
12817;DHT22;6473;51.552;6.716;2024-02-21T12:43:52;10.70;99.90
12817;DHT22;6473;51.552;6.716;2024-02-21T12:46:19;10.70;99.90
12817;DHT22;6473;51.552;6.716;2024-02-21T12:48:47;10.90;99.90
12817;DHT22;6473;51.552;6.716;2024-02-21T12:51:14;10.70;99.90
12817;DHT22;6473;51.552;6.716;2024-02-21T12:53:41;10.70;99.90
12817;DHT22;6473;51.552;6.716;2024-02-21T12:56:08;10.70;99.90
12817;DHT22;6473;51.552;6.716;2024-02-21T12:58:35;12.70;99.90
12817;DHT22;6473;51.552;6.716;2024-02-21T13:01:02;10.70;99.90
12817;DHT22;6473;51.552;6.716;2024-02-21T13:03:28;10.80;99.90
12817;DHT22;6473;51.552;6.716;2024-02-21T13:05:57;10.70;99.90
12817;DHT22;6473;51.552;6.716;2024-02-21T13:08:25;10.70;99.90
12817;DHT22;6473;51.552;6.716;2024-02-21T13:10:52;10.70;99.90
12817;DHT22;6473;51.552;6.716;2024-02-21T13:13:19;10.90;99.50
12817;DHT22;6473;51.552;6.716;2024-02-21T13:15:46;10.90;98.80
12817;DHT22;6473;51.552;6.716;2024-02-21T13:18:13;12.00;99.20
12817;DHT22;6473;51.552;6.716;2024-02-21T13:20:40;10.90;97.50
12817;DHT22;6473;51.552;6.716;2024-02-21T13:23:08;11.00;99.90
12817;DHT22;6473;51.552;6.716;2024-02-21T13:25:35;11.20;97.50
12817;DHT22;6473;51.552;6.716;2024-02-21T13:28:01;11.20;95.40
12817;DHT22;6473;51.552;6.716;2024-02-21T13:30:29;10.90;97.00
12817;DHT22;6473;51.552;6.716;2024-02-21T13:32:55;10.90;97.80
12817;DHT22;6473;51.552;6.716;2024-02-21T13:35:22;11.10;96.50
12817;DHT22;6473;51.552;6.716;2024-02-21T13:37:49;11.90;95.00
12817;DHT22;6473;51.552;6.716;2024-02-21T13:40:18;12.00;94.50
12817;DHT22;6473;51.552;6.716;2024-02-21T13:42:45;11.10;93.50
12817;DHT22;6473;51.552;6.716;2024-02-21T13:45:12;11.00;94.30
12817;DHT22;6473;51.552;6.716;2024-02-21T13:47:39;11.40;93.20
12817;DHT22;6473;51.552;6.716;2024-02-21T13:50:06;11.00;94.00
12817;DHT22;6473;51.552;6.716;2024-02-21T13:52:36;11.20;95.10
12817;DHT22;6473;51.552;6.716;2024-02-21T13:55:04;11.10;95.60
12817;DHT22;6473;51.552;6.716;2024-02-21T13:57:35;11.20;95.80
12817;DHT22;6473;51.552;6.716;2024-02-21T14:00:02;11.50;94.20
12817;DHT22;6473;51.552;6.716;2024-02-21T14:02:37;11.10;94.50
12817;DHT22;6473;51.552;6.716;2024-02-21T14:05:05;11.20;92.90
12817;DHT22;6473;51.552;6.716;2024-02-21T14:07:32;11.20;91.80
12817;DHT22;6473;51.552;6.716;2024-02-21T14:09:59;11.30;93.10
12817;DHT22;6473;51.552;6.716;2024-02-21T14:12:26;12.40;93.50
12817;DHT22;6473;51.552;6.716;2024-02-21T14:14:54;11.90;92.40
12817;DHT22;6473;51.552;6.716;2024-02-21T14:17:23;11.30;89.00
12817;DHT22;6473;51.552;6.716;2024-02-21T14:19:51;11.70;91.30
12817;DHT22;6473;51.552;6.716;2024-02-21T14:22:18;12.10;90.60
12817;DHT22;6473;51.552;6.716;2024-02-21T14:24:45;11.40;88.40
12817;DHT22;6473;51.552;6.716;2024-02-21T14:27:12;11.40;89.00
12817;DHT22;6473;51.552;6.716;2024-02-21T14:29:39;11.40;89.10
12817;DHT22;6473;51.552;6.716;2024-02-21T14:32:07;14.20;90.50
12817;DHT22;6473;51.552;6.716;2024-02-21T14:34:35;11.40;86.60
12817;DHT22;6473;51.552;6.716;2024-02-21T14:37:03;11.40;88.00
12817;DHT22;6473;51.552;6.716;2024-02-21T14:39:30;11.40;89.30
12817;DHT22;6473;51.552;6.716;2024-02-21T14:42:00;12.30;87.20
12817;DHT22;6473;51.552;6.716;2024-02-21T14:44:26;11.70;90.00
12817;DHT22;6473;51.552;6.716;2024-02-21T14:46:54;11.30;89.20
12817;DHT22;6473;51.552;6.716;2024-02-21T14:49:22;11.40;89.50
12817;DHT22;6473;51.552;6.716;2024-02-21T14:51:50;11.30;88.70
12817;DHT22;6473;51.552;6.716;2024-02-21T14:54:18;11.30;87.30
12817;DHT22;6473;51.552;6.716;2024-02-21T14:56:45;11.30;88.00
12817;DHT22;6473;51.552;6.716;2024-02-21T14:59:12;11.20;85.00
12817;DHT22;6473;51.552;6.716;2024-02-21T15:01:39;11.20;86.00
12817;DHT22;6473;51.552;6.716;2024-02-21T15:04:07;11.30;87.30
12817;DHT22;6473;51.552;6.716;2024-02-21T15:06:36;11.20;87.40
12817;DHT22;6473;51.552;6.716;2024-02-21T15:09:03;12.40;88.80
12817;DHT22;6473;51.552;6.716;2024-02-21T15:11:31;11.30;91.20
12817;DHT22;6473;51.552;6.716;2024-02-21T15:13:58;11.80;91.10
12817;DHT22;6473;51.552;6.716;2024-02-21T15:16:25;13.50;90.90
12817;DHT22;6473;51.552;6.716;2024-02-21T15:18:53;11.20;90.40
12817;DHT22;6473;51.552;6.716;2024-02-21T15:21:20;11.20;91.50
12817;DHT22;6473;51.552;6.716;2024-02-21T15:23:48;11.20;91.10
12817;DHT22;6473;51.552;6.716;2024-02-21T15:26:15;11.10;90.40
12817;DHT22;6473;51.552;6.716;2024-02-21T15:28:43;11.10;89.40
12817;DHT22;6473;51.552;6.716;2024-02-21T15:31:19;11.00;90.90
12817;DHT22;6473;51.552;6.716;2024-02-21T15:33:47;11.10;91.90
12817;DHT22;6473;51.552;6.716;2024-02-21T15:36:14;11.10;92.00
12817;DHT22;6473;51.552;6.716;2024-02-21T15:38:41;12.10;90.90
12817;DHT22;6473;51.552;6.716;2024-02-21T15:41:11;11.80;90.80
12817;DHT22;6473;51.552;6.716;2024-02-21T15:43:38;11.00;90.10
12817;DHT22;6473;51.552;6.716;2024-02-21T15:46:05;11.10;88.40
12817;DHT22;6473;51.552;6.716;2024-02-21T15:48:31;12.80;90.90
12817;DHT22;6473;51.552;6.716;2024-02-21T15:51:00;11.10;85.90
12817;DHT22;6473;51.552;6.716;2024-02-21T15:53:28;11.80;85.30
12817;DHT22;6473;51.552;6.716;2024-02-21T15:55:55;11.80;86.50
12817;DHT22;6473;51.552;6.716;2024-02-21T15:58:23;11.70;86.60
12817;DHT22;6473;51.552;6.716;2024-02-21T16:00:50;11.10;82.40
12817;DHT22;6473;51.552;6.716;2024-02-21T16:03:18;11.00;74.20
12817;DHT22;6473;51.552;6.716;2024-02-21T16:05:45;11.10;76.20
12817;DHT22;6473;51.552;6.716;2024-02-21T16:08:12;11.00;62.60
12817;DHT22;6473;51.552;6.716;2024-02-21T16:10:39;11.10;63.20